Time;durP1;ratioP1;P1;durP2;ratioP2;P2;SDS_P1;SDS_P2;PMS_P1;PMS_P2;Temp;Humidity;BMP_temperature;BMP_pressure;BME280_temperature;BME280_humidity;BME280_pressure;Samples;Min_cycle;Max_cycle;Signal;HPM_P1;HPM_P2
2022/04/24 00:01:11;;;;;;;4.78;4.38;;;;;;;12.83;45.72;100155.72;5071408;28;20127;-55
2022/04/24 00:03:36;;;;;;;5.60;4.43;;;;;;;12.81;45.47;100160.38;5071369;28;20043;-56
2022/04/24 00:06:01;;;;;;;6.93;4.70;;;;;;;12.80;45.80;100158.66;5071304;28;20448;-56
2022/04/24 00:08:27;;;;;;;8.10;5.00;;;;;;;12.75;45.75;100156.44;5073099;28;20041;-56
2022/04/24 00:10:53;;;;;;;5.90;4.45;;;;;;;12.70;45.95;100156.88;5072600;28;20438;-55
2022/04/24 00:13:18;;;;;;;6.57;4.53;;;;;;;12.67;46.39;100154.50;5072520;28;20033;-56
2022/04/24 00:15:43;;;;;;;5.65;4.70;;;;;;;12.63;46.21;100157.66;5072959;28;20032;-56
2022/04/24 00:18:09;;;;;;;6.40;5.32;;;;;;;12.60;46.43;100158.75;5072098;28;20032;-56
2022/04/24 00:20:34;;;;;;;7.88;5.30;;;;;;;12.54;46.69;100152.22;5073349;28;20033;-56
2022/04/24 00:23:00;;;;;;;5.43;4.93;;;;;;;12.49;46.89;100149.16;5072869;28;20119;-55
2022/04/24 00:25:25;;;;;;;5.78;5.18;;;;;;;12.44;46.83;100145.22;5072201;28;20049;-56
2022/04/24 00:27:50;;;;;;;5.40;4.90;;;;;;;12.37;47.29;100140.53;5072964;28;20440;-56
2022/04/24 00:30:15;;;;;;;6.20;4.93;;;;;;;12.33;47.23;100138.28;5073397;28;20079;-56
2022/04/24 00:32:41;;;;;;;5.47;4.95;;;;;;;12.28;47.70;100136.06;5073041;28;20479;-56
2022/04/24 00:35:06;;;;;;;5.45;4.95;;;;;;;12.24;47.51;100133.81;5073204;28;20032;-56
2022/04/24 00:37:32;;;;;;;5.63;5.10;;;;;;;12.20;47.85;100139.44;5072884;28;20045;-55
2022/04/24 00:39:57;;;;;;;5.43;4.93;;;;;;;12.15;47.64;100140.88;5072967;28;20044;-56
2022/04/24 00:42:22;;;;;;;5.97;5.00;;;;;;;12.10;47.76;100135.97;5072798;28;20802;-56
2022/04/24 00:44:47;;;;;;;5.90;5.40;;;;;;;12.05;48.28;100132.91;5073282;28;20036;-56
2022/04/24 00:47:18;;;;;;;5.47;4.97;;;;;;;12.01;48.27;100137.69;5072062;28;20446;-56
2022/04/24 00:49:45;;;;;;;5.45;5.05;;;;;;;11.93;48.61;100134.91;5072801;28;20283;-56
2022/04/24 00:52:11;;;;;;;5.65;5.15;;;;;;;11.89;48.80;100140.63;5072840;28;20079;-56
2022/04/24 00:54:37;;;;;;;6.30;5.70;;;;;;;11.84;48.71;100143.72;5072928;28;20482;-55
2022/04/24 00:57:06;;;;;;;5.30;4.90;;;;;;;11.75;49.10;100133.94;5073018;28;20498;-56
2022/04/24 00:59:31;;;;;;;7.65;5.63;;;;;;;11.74;49.20;100132.25;5072932;28;20521;-56
2022/04/24 01:01:57;;;;;;;6.05;5.45;;;;;;;11.71;49.38;100143.16;5072649;28;20079;-56
2022/04/24 01:04:22;;;;;;;6.25;5.65;;;;;;;11.65;49.55;100136.59;5072903;28;20045;-56
2022/04/24 01:06:47;;;;;;;6.18;5.57;;;;;;;11.59;49.62;100143.34;5072861;28;20035;-56
2022/04/24 01:09:14;;;;;;;6.73;5.60;;;;;;;11.55;49.81;100141.09;5072702;28;20490;-55
2022/04/24 01:11:40;;;;;;;5.55;5.05;;;;;;;11.48;49.73;100133.66;5072722;28;20295;-55
2022/04/24 01:14:06;;;;;;;7.32;5.43;;;;;;;11.43;50.03;100141.25;5072540;28;20087;-56
2022/04/24 01:16:32;;;;;;;6.38;5.78;;;;;;;11.42;49.98;100136.06;5072772;28;20028;-56
2022/04/24 01:18:57;;;;;;;6.40;5.78;;;;;;;11.37;50.10;100133.81;5072816;28;20044;-56
2022/04/24 01:21:23;;;;;;;5.45;5.00;;;;;;;11.33;50.30;100135.09;5072385;28;20074;-56
2022/04/24 01:23:48;;;;;;;6.20;5.60;;;;;;;11.29;50.48;100139.84;5072646;28;20052;-56
2022/04/24 01:26:13;;;;;;;5.97;5.47;;;;;;;11.26;50.48;100137.47;5072356;28;20077;-56
2022/04/24 01:28:39;;;;;;;6.05;5.35;;;;;;;11.23;50.56;100148.38;5072194;28;20036;-56
2022/04/24 01:31:05;;;;;;;6.63;5.95;;;;;;;11.19;50.81;100146.13;5054619;28;20048;-55
2022/04/24 01:33:31;;;;;;;6.10;5.55;;;;;;;11.17;50.94;100140.94;5072621;28;20068;-56
2022/04/24 01:35:56;;;;;;;6.07;5.47;;;;;;;11.14;51.27;100143.03;5072804;28;20067;-56
2022/04/24 01:38:21;;;;;;;6.17;5.50;;;;;;;11.10;50.88;100148.63;5072220;28;20033;-56
2022/04/24 01:40:46;;;;;;;6.33;5.73;;;;;;;11.05;51.27;100142.88;5072247;28;20385;-56
2022/04/24 01:43:11;;;;;;;6.23;5.63;;;;;;;11.05;51.18;100142.88;5072521;28;20279;-56
2022/04/24 01:45:37;;;;;;;6.40;5.80;;;;;;;11.02;51.41;100142.31;5071789;28;20309;-56
2022/04/24 01:48:02;;;;;;;7.45;5.72;;;;;;;11.00;51.50;100137.16;5072524;28;20044;-56
2022/04/24 01:50:27;;;;;;;6.32;5.72;;;;;;;10.96;51.55;100134.91;5071956;28;20544;-56
2022/04/24 01:52:53;;;;;;;6.10;5.50;;;;;;;10.93;51.22;100134.22;5072107;28;20106;-56
2022/04/24 01:55:18;;;;;;;6.57;5.80;;;;;;;10.91;51.75;100141.47;5072364;28;20313;-56
2022/04/24 01:57:44;;;;;;;6.53;5.90;;;;;;;10.91;51.62;100138.00;5073243;28;20275;-56
2022/04/24 02:00:10;;;;;;;7.03;6.25;;;;;;;10.86;52.00;100141.06;5076135;28;20500;-56
2022/04/24 02:02:35;;;;;;;7.07;6.30;;;;;;;10.85;51.96;100142.03;5077871;28;20077;-56
2022/04/24 02:05:00;;;;;;;9.35;6.20;;;;;;;10.79;52.06;100139.06;5096311;28;20059;-56
2022/04/24 02:07:25;;;;;;;6.20;5.70;;;;;;;10.81;51.94;100145.06;5096223;28;20123;-55
2022/04/24 02:09:51;;;;;;;6.15;5.57;;;;;;;10.78;51.96;100140.06;5093383;28;20117;-55
2022/04/24 02:12:16;;;;;;;6.88;6.10;;;;;;;10.74;51.79;100140.31;5076131;28;20032;-56
2022/04/24 02:14:41;;;;;;;6.67;5.90;;;;;;;10.72;52.27;100141.44;5076157;28;20037;-55
2022/04/24 02:17:06;;;;;;;6.45;5.85;;;;;;;10.71;52.21;100147.72;5075942;28;20309;-56
2022/04/24 02:19:32;;;;;;;6.70;6.10;;;;;;;10.67;52.24;100133.84;5075788;28;20040;-55
2022/04/24 02:21:57;;;;;;;6.93;5.93;;;;;;;10.58;52.54;100131.19;5075908;28;20032;-55
2022/04/24 02:24:22;;;;;;;7.50;5.30;;;;;;;10.61;52.85;100145.03;5075628;28;20679;-55
2022/04/24 02:26:47;;;;;;;7.03;6.32;;;;;;;10.58;52.82;100142.66;5102600;22;20307;-62
2022/04/24 02:29:13;;;;;;;6.72;6.03;;;;;;;10.56;52.79;100149.94;5074097;28;20064;-61
2022/04/24 02:31:38;;;;;;;7.20;6.50;;;;;;;10.52;52.98;100146.69;5059043;28;20045;-62
2022/04/24 02:34:03;;;;;;;7.20;6.50;;;;;;;10.52;52.82;100146.69;5072257;28;20434;-62
2022/04/24 02:36:28;;;;;;;7.68;6.45;;;;;;;10.50;52.94;100143.31;5054958;28;20041;-62
2022/04/24 02:38:54;;;;;;;7.50;6.73;;;;;;;10.51;52.76;100141.53;5053825;28;20425;-62
2022/04/24 02:41:19;;;;;;;11.90;6.57;;;;;;;10.47;53.19;100146.22;5054824;28;20303;-61
2022/04/24 02:43:44;;;;;;;7.25;6.55;;;;;;;10.45;53.16;100150.00;5067748;28;20278;-63
2022/04/24 02:46:09;;;;;;;8.07;6.45;;;;;;;10.43;53.62;100150.16;5058855;28;20599;-61
2022/04/24 02:48:35;;;;;;;6.93;6.28;;;;;;;10.44;53.24;100143.00;5056902;28;20033;-62
2022/04/24 02:51:00;;;;;;;8.32;6.35;;;;;;;10.42;53.28;100147.63;5054782;28;20115;-62
2022/04/24 02:53:25;;;;;;;7.28;6.50;;;;;;;10.41;53.44;100149.44;5055256;28;20033;-63
2022/04/24 02:55:51;;;;;;;8.30;7.05;;;;;;;10.42;53.55;100147.63;5053712;28;20037;-62
2022/04/24 02:58:16;;;;;;;8.50;6.60;;;;;;;10.42;53.65;100147.63;5054521;28;20037;-62
2022/04/24 03:00:43;;;;;;;7.55;6.85;;;;;;;10.41;53.45;100152.09;5056097;28;20546;-62
2022/04/24 03:03:09;;;;;;;7.78;6.97;;;;;;;10.40;53.62;100145.09;5054185;28;20052;-62
2022/04/24 03:05:35;;;;;;;7.50;6.78;;;;;;;10.39;53.83;100142.56;5054497;28;20029;-62
2022/04/24 03:08:00;;;;;;;7.57;6.82;;;;;;;10.40;53.88;100152.22;5055248;28;20110;-63
2022/04/24 03:10:26;;;;;;;7.97;7.15;;;;;;;10.39;53.76;100151.38;5053354;28;20115;-62
2022/04/24 03:12:51;;;;;;;8.25;7.45;;;;;;;10.39;53.80;100150.53;5055368;28;20487;-62
2022/04/24 03:15:16;;;;;;;8.15;7.43;;;;;;;10.39;53.97;100147.88;5054668;28;20029;-63
2022/04/24 03:17:43;;;;;;;8.07;7.28;;;;;;;10.35;53.96;100149.97;5056463;28;20041;-63
2022/04/24 03:20:10;;;;;;;8.30;7.50;;;;;;;10.32;54.24;100159.03;5054818;28;20084;-62
2022/04/24 03:22:36;;;;;;;8.43;7.00;;;;;;;10.29;54.21;100159.28;5054594;28;20151;-61
2022/04/24 03:25:06;;;;;;;8.00;7.20;;;;;;;10.27;54.33;100155.91;5054136;28;20036;-62
2022/04/24 03:27:32;;;;;;;8.38;7.50;;;;;;;10.27;54.31;100157.72;5053989;28;20495;-62
2022/04/24 03:29:57;;;;;;;8.30;7.45;;;;;;;10.23;54.61;100166.94;5054741;28;20040;-63
2022/04/24 03:32:22;;;;;;;10.90;8.10;;;;;;;10.18;54.63;100154.88;5054446;28;20044;-62
2022/04/24 03:34:48;;;;;;;9.57;7.80;;;;;;;10.14;54.76;100160.59;5054344;28;20441;-61
2022/04/24 03:37:13;;;;;;;8.38;7.60;;;;;;;10.08;54.89;100161.13;5069897;28;20307;-62
2022/04/24 03:39:38;;;;;;;8.93;8.02;;;;;;;10.04;55.12;100149.09;5055201;28;20032;-61
2022/04/24 03:42:04;;;;;;;10.77;8.02;;;;;;;10.01;54.99;100166.13;5053812;28;20047;-62
2022/04/24 03:44:32;;;;;;;11.32;7.75;;;;;;;9.95;55.17;100162.16;5055623;28;20028;-62
2022/04/24 03:46:57;;;;;;;8.93;8.02;;;;;;;9.90;55.82;100160.88;5053758;28;20035;-62
2022/04/24 03:49:22;;;;;;;9.07;8.23;;;;;;;9.89;55.66;100161.84;5053776;28;20037;-63
2022/04/24 03:51:48;;;;;;;8.93;7.90;;;;;;;9.85;55.80;100163.91;5053159;28;20048;-62
2022/04/24 03:54:13;;;;;;;9.83;8.17;;;;;;;9.81;56.20;100157.19;5052364;28;20037;-62
2022/04/24 03:56:38;;;;;;;11.07;8.07;;;;;;;9.77;56.22;100158.41;5052475;28;20672;-64
2022/04/24 03:59:03;;;;;;;9.17;8.27;;;;;;;9.73;56.28;100155.19;5052962;28;20311;-62
2022/04/24 04:01:28;;;;;;;9.07;8.13;;;;;;;9.71;56.26;100156.28;5052515;28;20342;-63
2022/04/24 04:03:56;;;;;;;9.50;7.95;;;;;;;9.67;56.62;100155.69;5053477;28;20037;-63
2022/04/24 04:06:21;;;;;;;9.25;8.35;;;;;;;9.61;56.66;100156.22;5053726;28;20039;-62
2022/04/24 04:08:46;;;;;;;8.45;7.65;;;;;;;9.58;56.90;100167.91;5053076;28;20124;-63
2022/04/24 04:11:12;;;;;;;8.87;7.97;;;;;;;9.54;57.15;100155.03;5053333;28;20060;-62
2022/04/24 04:13:37;;;;;;;8.93;8.13;;;;;;;9.49;57.29;100158.06;5052516;28;20646;-62
2022/04/24 04:16:03;;;;;;;9.43;8.48;;;;;;;9.44;57.57;100157.59;5071041;28;20086;-63
2022/04/24 04:18:28;;;;;;;9.02;7.82;;;;;;;9.39;57.73;100165.97;5071036;28;20486;-63
2022/04/24 04:20:53;;;;;;;9.20;8.30;;;;;;;9.37;57.87;100161.75;5064060;28;20554;-62
2022/04/24 04:23:19;;;;;;;9.43;8.43;;;;;;;9.35;58.17;100168.97;5053072;28;20279;-62
2022/04/24 04:25:44;;;;;;;9.48;8.27;;;;;;;9.31;58.50;100171.06;5052593;28;20045;-62
2022/04/24 04:28:09;;;;;;;10.50;9.00;;;;;;;9.25;58.83;100174.19;5052676;28;20041;-63
2022/04/24 04:30:35;;;;;;;9.90;8.60;;;;;;;9.23;58.78;100174.31;5053893;28;20051;-62
2022/04/24 04:33:00;;;;;;;10.43;8.18;;;;;;;9.19;59.12;100175.56;5053752;28;20056;-62
2022/04/24 04:35:26;;;;;;;13.20;8.63;;;;;;;9.15;59.35;100175.91;5054123;28;20036;-62
2022/04/24 04:37:51;;;;;;;10.15;8.18;;;;;;;9.13;59.45;100183.16;5054300;28;20033;-63
2022/04/24 04:40:18;;;;;;;10.30;8.93;;;;;;;9.10;59.56;100178.94;5051888;28;20045;-63
2022/04/24 04:42:44;;;;;;;10.43;8.63;;;;;;;9.08;59.57;100186.16;5053205;28;20037;-63
2022/04/24 04:45:10;;;;;;;10.98;8.75;;;;;;;9.06;59.81;100181.00;5054912;28;20044;-62
2022/04/24 04:47:36;;;;;;;9.43;8.52;;;;;;;9.04;60.08;100184.72;5072373;28;20029;-62
2022/04/24 04:50:02;;;;;;;10.35;8.35;;;;;;;9.01;60.35;100190.25;5054976;28;20487;-63
2022/04/24 04:52:28;;;;;;;8.65;7.68;;;;;;;8.97;60.45;100189.66;5054349;28;20426;-62
2022/04/24 04:54:53;;;;;;;10.80;8.10;;;;;;;8.96;60.88;100192.44;5052808;28;20025;-61
2022/04/24 04:57:19;;;;;;;9.40;8.20;;;;;;;8.96;60.80;100193.31;5052845;28;20045;-62
2022/04/24 04:59:44;;;;;;;9.98;8.45;;;;;;;8.94;60.66;100187.25;5053035;28;20041;-62
2022/04/24 05:02:09;;;;;;;13.20;8.68;;;;;;;8.97;61.02;100186.19;5052455;28;20061;-62
2022/04/24 05:04:35;;;;;;;10.20;8.30;;;;;;;8.98;61.08;100191.38;5052398;28;20375;-63
2022/04/24 05:07:00;;;;;;;14.60;8.57;;;;;;;8.98;61.24;100194.00;5053107;28;20061;-62
2022/04/24 05:09:25;;;;;;;9.23;8.32;;;;;;;8.99;61.29;100206.31;5051886;28;20402;-63
2022/04/24 05:11:51;;;;;;;10.13;8.00;;;;;;;8.99;61.17;100206.31;5052736;28;20037;-62
2022/04/24 05:14:16;;;;;;;9.60;8.35;;;;;;;9.00;61.13;100207.97;5052223;28;20053;-62
2022/04/24 05:16:41;;;;;;;11.15;7.75;;;;;;;9.03;61.21;100212.19;5052644;28;20116;-62
2022/04/24 05:19:07;;;;;;;9.82;7.70;;;;;;;9.07;60.98;100214.44;5052386;28;20064;-62
2022/04/24 05:21:32;;;;;;;10.88;8.30;;;;;;;9.12;60.92;100214.09;5052295;28;20033;-62
2022/04/24 05:23:58;;;;;;;10.55;8.38;;;;;;;9.17;60.98;100216.38;5052341;28;20041;-62
2022/04/24 05:26:23;;;;;;;11.38;8.93;;;;;;;9.22;60.93;100222.97;5052006;28;20107;-61
2022/04/24 05:28:48;;;;;;;9.00;8.10;;;;;;;9.27;60.65;100219.94;5052836;28;20119;-62
2022/04/24 05:31:14;;;;;;;10.05;8.32;;;;;;;9.31;60.53;100221.41;5052050;28;20398;-62
2022/04/24 05:33:39;;;;;;;8.60;7.70;;;;;;;9.34;60.76;100218.50;5054618;28;20068;-62
2022/04/24 05:36:05;;;;;;;10.52;8.10;;;;;;;9.37;60.31;100220.03;5056131;28;20041;-62
2022/04/24 05:38:31;;;;;;;10.07;8.32;;;;;;;9.38;60.13;100219.94;5056407;28;20581;-62
2022/04/24 05:40:56;;;;;;;10.23;8.32;;;;;;;9.40;60.29;100225.09;5054644;28;20121;-62
2022/04/24 05:43:21;;;;;;;8.80;7.30;;;;;;;9.40;60.21;100228.59;5056064;28;20445;-61
2022/04/24 05:45:47;;;;;;;9.02;7.97;;;;;;;9.41;60.11;100229.44;5055781;28;20537;-62
2022/04/24 05:48:12;;;;;;;9.73;8.10;;;;;;;9.39;60.40;100226.06;5056473;28;20033;-63
2022/04/24 05:50:37;;;;;;;10.95;7.78;;;;;;;9.39;60.12;100226.91;5060118;28;20138;-63
2022/04/24 05:53:03;;;;;;;9.03;7.57;;;;;;;9.39;60.19;100231.34;5057379;28;20079;-63
2022/04/24 05:55:28;;;;;;;8.68;7.78;;;;;;;9.41;60.10;100229.44;5057149;28;20296;-63
2022/04/24 05:57:53;;;;;;;10.93;8.25;;;;;;;9.44;60.30;100229.16;5059703;28;20104;-63
2022/04/24 06:00:20;;;;;;;8.75;7.57;;;;;;;9.45;60.17;100242.31;5056937;28;20132;-62
2022/04/24 06:02:45;;;;;;;8.00;7.20;;;;;;;9.49;60.11;100237.59;5054085;28;20385;-63
2022/04/24 06:05:10;;;;;;;11.15;7.57;;;;;;;9.51;59.78;100234.81;5056879;28;20044;-63
2022/04/24 06:07:36;;;;;;;10.75;7.57;;;;;;;9.53;59.48;100239.03;5063429;28;20036;-62
2022/04/24 06:10:04;;;;;;;8.55;7.28;;;;;;;9.57;59.33;100250.22;5058762;28;20065;-64
2022/04/24 06:12:29;;;;;;;9.20;7.65;;;;;;;9.58;59.77;100250.09;5056141;28;20040;-62
2022/04/24 06:14:54;;;;;;;9.75;7.25;;;;;;;9.62;59.05;100253.34;5058771;28;20033;-63
2022/04/24 06:17:20;;;;;;;9.13;7.40;;;;;;;9.63;59.31;100250.56;5075299;28;20029;-63
2022/04/24 06:19:45;;;;;;;9.57;7.43;;;;;;;9.67;59.43;100251.16;5065696;28;20128;-63
2022/04/24 06:22:10;;;;;;;9.27;7.25;;;;;;;9.69;58.94;100251.88;5054874;28;20293;-63
2022/04/24 06:24:35;;;;;;;8.65;7.72;;;;;;;9.76;58.96;100247.75;5054844;28;20497;-63
2022/04/24 06:27:01;;;;;;;9.38;7.47;;;;;;;9.80;58.51;100250.97;5057777;28;20048;-63
2022/04/24 06:29:27;;;;;;;8.80;6.95;;;;;;;9.85;58.76;100246.13;5074479;28;20035;-63
2022/04/24 06:31:53;;;;;;;8.40;7.10;;;;;;;9.91;58.29;100258.91;5061974;28;20490;-63
2022/04/24 06:34:18;;;;;;;8.23;6.75;;;;;;;9.94;58.37;100260.44;5054748;28;20044;-62
2022/04/24 06:36:43;;;;;;;10.13;7.07;;;;;;;9.98;58.37;100252.09;5054597;28;20047;-62
2022/04/24 06:39:09;;;;;;;10.17;7.40;;;;;;;10.03;58.01;100254.38;5055150;28;20453;-63
2022/04/24 06:41:34;;;;;;;11.48;7.15;;;;;;;10.10;58.22;100257.34;5054490;28;20279;-63
2022/04/24 06:43:59;;;;;;;11.43;7.28;;;;;;;10.17;57.44;100258.50;5053660;28;20037;-63
2022/04/24 06:46:24;;;;;;;7.90;7.20;;;;;;;10.23;57.30;100262.47;5053554;28;20463;-63
2022/04/24 06:48:50;;;;;;;8.52;7.40;;;;;;;10.31;57.37;100270.63;5054316;28;20275;-65
2022/04/24 06:51:15;;;;;;;8.15;7.00;;;;;;;10.40;57.10;100256.59;5054950;28;20041;-63
2022/04/24 06:53:41;;;;;;;9.67;7.20;;;;;;;10.52;56.70;100260.88;5058790;28;20071;-64
2022/04/24 06:56:07;;;;;;;7.90;6.47;;;;;;;10.64;56.25;100258.97;5074307;28;20274;-63
2022/04/24 06:58:32;;;;;;;6.88;6.25;;;;;;;10.76;54.96;100265.03;5066036;28;20037;-63
2022/04/24 07:00:58;;;;;;;8.00;6.60;;;;;;;10.95;54.79;100266.09;5054013;28;20040;-64
2022/04/24 07:03:26;;;;;;;10.73;7.45;;;;;;;11.16;55.25;100269.53;5053919;28;20041;-64
2022/04/24 07:05:56;;;;;;;7.72;6.93;;;;;;;11.39;54.13;100262.16;5054230;28;20040;-65
2022/04/24 07:08:24;;;;;;;9.05;7.05;;;;;;;11.64;53.43;100260.78;5073557;28;20044;-64
2022/04/24 07:10:49;;;;;;;9.32;6.75;;;;;;;11.83;52.14;100254.63;5073987;28;20044;-65
2022/04/24 07:13:14;;;;;;;10.25;7.28;;;;;;;12.04;51.76;100256.34;5072759;28;20040;-64
2022/04/24 07:15:41;;;;;;;12.15;7.00;;;;;;;12.31;51.49;100263.59;5066333;28;20437;-65
2022/04/24 07:18:07;;;;;;;7.85;7.10;;;;;;;12.51;50.66;100252.91;5053763;28;20580;-65
2022/04/24 07:20:33;;;;;;;8.52;7.05;;;;;;;12.76;49.83;100252.22;5054624;28;20083;-65
2022/04/24 07:23:05;;;;;;;10.38;6.75;;;;;;;12.97;49.51;100259.16;5053625;28;20045;-63
2022/04/24 07:25:35;;;;;;;8.35;7.15;;;;;;;13.19;48.85;100265.06;5053801;28;20115;-63
2022/04/24 07:28:00;;;;;;;8.55;6.63;;;;;;;13.37;47.29;100255.31;5053592;28;20079;-64
2022/04/24 07:30:26;;;;;;;7.75;6.85;;;;;;;13.57;46.90;100263.19;5053692;28;20045;-64
2022/04/24 07:32:54;;;;;;;10.25;7.13;;;;;;;13.77;46.91;100258.53;5056102;28;20041;-65
2022/04/24 07:35:23;;;;;;;8.30;7.50;;;;;;;13.95;46.44;100269.22;5070607;28;20470;-65
2022/04/24 07:37:49;;;;;;;8.80;6.55;;;;;;;14.11;46.33;100276.53;5073219;28;20085;-65
2022/04/24 07:40:17;;;;;;;9.30;6.97;;;;;;;14.31;45.96;100266.50;5068015;28;20058;-65
2022/04/24 07:42:51;;;;;;;9.95;7.00;;;;;;;14.53;46.09;100270.50;5070519;28;20048;-65
2022/04/24 07:45:24;;;;;;;13.25;7.50;;;;;;;14.71;44.89;100265.94;5073549;28;20081;-66
2022/04/24 07:47:51;;;;;;;7.75;6.95;;;;;;;14.94;45.45;100265.41;5071465;28;20040;-65
2022/04/24 07:50:19;;;;;;;7.68;6.63;;;;;;;15.15;43.17;100268.50;5053346;28;20037;-65
2022/04/24 07:52:49;;;;;;;9.10;6.85;;;;;;;15.33;43.09;100265.69;5052973;28;20076;-64
2022/04/24 07:55:17;;;;;;;8.70;6.57;;;;;;;15.57;43.05;100274.81;5053418;28;20107;-65
2022/04/24 07:57:43;;;;;;;8.75;6.22;;;;;;;15.87;42.63;100272.53;5065528;28;20494;-65
2022/04/24 08:00:09;;;;;;;6.78;6.15;;;;;;;16.01;41.44;100271.88;5072863;28;20041;-65
2022/04/24 08:03:00;;;;;;;9.52;7.20;;;;;;;16.20;42.45;100264.50;5072753;28;20055;-65
2022/04/24 08:05:26;;;;;;;8.77;6.55;;;;;;;16.38;41.35;100265.16;5060564;28;20040;-65
2022/04/24 08:07:53;;;;;;;7.75;6.90;;;;;;;16.61;41.34;100273.31;5072424;28;20127;-66
2022/04/24 08:10:20;;;;;;;7.35;6.50;;;;;;;16.65;40.04;100271.97;5056267;28;20044;-64
2022/04/24 08:12:46;;;;;;;9.07;6.53;;;;;;;16.71;39.41;100275.81;5052613;28;20052;-65
2022/04/24 08:15:11;;;;;;;7.18;6.30;;;;;;;16.78;39.38;100273.28;5051270;28;20483;-63
2022/04/24 08:17:37;;;;;;;9.68;6.68;;;;;;;16.92;39.06;100283.34;5052609;28;20033;-64
2022/04/24 08:20:03;;;;;;;9.23;7.28;;;;;;;16.94;38.52;100273.25;5055882;28;20037;-64
2022/04/24 08:22:38;;;;;;;7.93;6.72;;;;;;;17.14;39.46;100270.16;5054415;28;20068;-61
2022/04/24 08:25:06;;;;;;;7.75;6.75;;;;;;;17.33;38.18;100276.94;5052806;28;20041;-63
2022/04/24 08:27:32;;;;;;;9.50;6.80;;;;;;;17.44;37.69;100275.72;5053099;28;20048;-61
2022/04/24 08:29:57;;;;;;;10.32;6.53;;;;;;;17.62;37.50;100270.91;5052090;28;20545;-63
2022/04/24 08:32:24;;;;;;;8.57;7.18;;;;;;;17.77;38.11;100284.41;5051664;28;20060;-63
2022/04/24 08:34:50;;;;;;;8.98;6.70;;;;;;;17.88;36.81;100283.19;5050094;28;20040;-63
2022/04/24 08:37:15;;;;;;;11.05;6.80;;;;;;;18.00;37.50;100283.59;5052352;28;20044;-64
2022/04/24 08:39:40;;;;;;;9.93;6.90;;;;;;;18.21;36.61;100281.06;5052481;28;20037;-64
2022/04/24 08:42:07;;;;;;;23.13;7.97;;;;;;;18.44;36.86;100285.59;5052437;28;20370;-63
2022/04/24 08:44:33;;;;;;;12.85;6.78;;;;;;;18.57;36.22;100275.03;5052883;28;20342;-64
2022/04/24 08:46:58;;;;;;;10.57;7.30;;;;;;;18.72;36.04;100283.13;5052255;28;20129;-65
2022/04/24 08:49:26;;;;;;;11.13;6.65;;;;;;;19.07;36.11;100277.19;5052899;28;20441;-62
2022/04/24 08:51:53;;;;;;;9.30;7.28;;;;;;;19.38;35.45;100279.66;5050968;28;20033;-63
2022/04/24 08:54:19;;;;;;;8.80;7.38;;;;;;;19.41;34.44;100277.41;5051139;28;20124;-63
2022/04/24 08:56:44;;;;;;;8.77;7.28;;;;;;;19.40;33.85;100289.22;5052783;28;20087;-63
2022/04/24 08:59:09;;;;;;;8.27;7.17;;;;;;;19.54;34.63;100279.41;5052245;28;20045;-63
2022/04/24 09:01:44;;;;;;;10.40;7.57;;;;;;;19.65;34.75;100282.63;5051718;28;20676;-63
2022/04/24 09:04:10;;;;;;;8.90;7.68;;;;;;;19.80;34.03;100282.63;5059981;28;20310;-63
2022/04/24 09:06:35;;;;;;;11.63;7.53;;;;;;;20.02;33.65;100281.59;5050820;28;20471;-62
2022/04/24 09:09:05;;;;;;;8.70;7.20;;;;;;;20.25;34.04;100275.13;5055366;28;20299;-63
2022/04/24 09:11:33;;;;;;;9.35;7.07;;;;;;;20.38;32.40;100274.41;5057276;28;20036;-64
2022/04/24 09:14:18;;;;;;;8.50;7.60;;;;;;;20.58;32.39;100278.09;5067267;28;20127;-64
2022/04/24 09:16:47;;;;;;;8.27;7.47;;;;;;;20.74;32.12;100276.97;5051971;28;20052;-63
2022/04/24 09:19:22;;;;;;;;;;;;;;;21.00;33.80;100281.72;5058879;28;20112;-64
2022/04/24 09:21:52;;;;;;;11.30;7.80;;;;;;;20.88;31.75;100275.19;5056092;28;20346;-63
2022/04/24 09:24:18;;;;;;;8.30;7.40;;;;;;;20.95;31.43;100276.06;5054176;28;20036;-64
2022/04/24 09:26:55;;;;;;;8.05;7.32;;;;;;;21.03;32.52;100288.56;5054920;28;20045;-63
2022/04/24 09:29:21;;;;;;;10.95;7.10;;;;;;;20.96;30.62;100282.31;5055659;28;20524;-64
2022/04/24 09:31:48;;;;;;;10.98;7.32;;;;;;;21.11;30.82;100280.28;5055665;28;20076;-64
2022/04/24 09:34:16;;;;;;;8.52;7.35;;;;;;;21.23;30.70;100284.09;5055529;28;20397;-64
2022/04/24 09:36:41;;;;;;;8.63;7.80;;;;;;;21.26;30.90;100282.84;5055531;28;20059;-63
2022/04/24 09:39:06;;;;;;;8.30;7.30;;;;;;;21.46;31.04;100280.22;5051870;28;20483;-64
2022/04/24 09:41:32;;;;;;;9.32;7.55;;;;;;;21.60;30.74;100273.84;5069820;28;20318;-63
2022/04/24 09:43:57;;;;;;;10.60;7.77;;;;;;;21.53;29.52;100278.41;5073881;28;20033;-64
2022/04/24 09:46:29;;;;;;;7.60;6.88;;;;;;;21.69;30.71;100282.59;5055058;28;20303;-63
2022/04/24 09:49:00;;;;;;;8.75;7.32;;;;;;;21.66;29.57;100274.91;5055060;28;20037;-64
2022/04/24 09:51:26;;;;;;;10.10;8.48;;;;;;;21.62;29.50;100284.47;5070032;28;20048;-63
2022/04/24 09:53:56;;;;;;;8.77;7.70;;;;;;;21.65;29.68;100280.50;5062139;28;20025;-64
2022/04/24 09:56:25;;;;;;;10.07;7.70;;;;;;;21.87;30.51;100278.50;5065005;28;20041;-64
2022/04/24 09:58:51;;;;;;;9.45;7.85;;;;;;;21.95;30.21;100278.28;5073534;28;20107;-64
2022/04/24 10:01:18;;;;;;;8.20;7.50;;;;;;;22.09;29.81;100279.94;5073278;28;20025;-63
2022/04/24 10:03:44;;;;;;;11.50;8.18;;;;;;;22.28;29.45;100270.22;5073471;28;20055;-63
2022/04/24 10:06:10;;;;;;;10.77;7.50;;;;;;;22.45;28.39;100281.44;5066062;28;20044;-63
2022/04/24 10:08:36;;;;;;;10.15;7.68;;;;;;;22.60;29.05;100283.06;5059155;28;20656;-63
2022/04/24 10:11:04;;;;;;;12.38;7.72;;;;;;;22.65;28.75;100281.41;5054320;28;20060;-63
2022/04/24 10:13:31;;;;;;;9.45;8.40;;;;;;;22.58;28.59;100275.16;5054404;28;20043;-64
2022/04/24 10:16:35;;;;;;;9.95;8.13;;;;;;;22.57;29.70;100273.53;5052634;28;20078;-64
2022/04/24 10:19:31;;;;;;;9.18;7.55;;;;;;;22.49;29.98;100282.69;5071411;28;20044;-65
2022/04/24 10:22:34;;;;;;;10.25;8.75;;;;;;;22.56;29.50;100281.84;5054511;28;20403;-64
2022/04/24 10:25:01;;;;;;;8.88;7.97;;;;;;;22.49;28.07;100279.97;5046438;28;20036;-64
2022/04/24 10:27:44;;;;;;;11.20;9.00;;;;;;;22.56;29.42;100285.38;5071210;28;20466;-64
2022/04/24 10:30:20;;;;;;;9.05;8.15;;;;;;;22.61;28.93;100287.47;5074009;28;20040;-64
2022/04/24 10:32:48;;;;;;;10.00;8.23;;;;;;;22.60;28.01;100286.63;5074257;28;20033;-64
2022/04/24 10:35:16;;;;;;;10.05;8.25;;;;;;;22.42;27.40;100291.88;5072689;28;20044;-64
2022/04/24 10:37:42;;;;;;;9.48;8.13;;;;;;;22.46;27.56;100279.56;5054150;28;20032;-64
2022/04/24 10:40:13;;;;;;;8.52;7.70;;;;;;;22.44;27.73;100282.47;5054212;28;20045;-65
2022/04/24 10:42:39;;;;;;;10.25;9.18;;;;;;;22.56;28.10;100276.44;5054446;28;20075;-63
2022/04/24 10:45:16;;;;;;;10.93;7.80;;;;;;;22.56;28.37;100295.38;5053173;28;20505;-63
2022/04/24 10:47:50;;;;;;;10.15;7.43;;;;;;;22.78;28.51;100290.53;5053873;28;20037;-65
2022/04/24 10:50:20;;;;;;;11.05;7.20;;;;;;;22.85;27.93;100286.78;5053613;28;20040;-63
2022/04/24 10:52:53;;;;;;;8.77;6.50;;;;;;;22.91;28.05;100288.66;5054570;28;20040;-63
2022/04/24 10:55:23;;;;;;;7.07;6.28;;;;;;;22.88;28.07;100294.50;5053692;28;20021;-64
2022/04/24 10:57:54;;;;;;;7.53;6.78;;;;;;;22.69;26.84;100288.06;5054149;28;20066;-64
2022/04/24 11:00:25;;;;;;;7.43;6.47;;;;;;;22.82;27.55;100279.09;5053759;28;20063;-64
2022/04/24 11:02:51;;;;;;;7.00;6.38;;;;;;;22.86;27.13;100282.19;5053505;28;20045;-64
2022/04/24 11:05:22;;;;;;;10.30;6.65;;;;;;;23.02;27.35;100287.16;5053982;28;20029;-64
2022/04/24 11:07:48;;;;;;;9.70;6.28;;;;;;;22.88;26.45;100289.09;5065607;28;20344;-64
2022/04/24 11:10:20;;;;;;;9.35;5.72;;;;;;;22.78;27.02;100301.38;5053559;28;20049;-62
2022/04/24 11:12:48;;;;;;;10.60;6.65;;;;;;;22.68;26.24;100291.84;5054041;28;20114;-63
2022/04/24 11:15:14;;;;;;;9.07;6.60;;;;;;;22.50;26.04;100292.47;5052706;28;20498;-64
2022/04/24 11:17:41;;;;;;;7.13;6.47;;;;;;;22.56;26.59;100292.66;5052903;28;20124;-63
2022/04/24 11:20:13;;;;;;;7.65;6.40;;;;;;;22.65;27.25;100286.84;5053499;28;20083;-63
2022/04/24 11:22:55;;;;;;;7.68;6.10;;;;;;;22.81;27.54;100282.81;5068505;28;20040;-63
2022/04/24 11:25:22;;;;;;;11.65;7.07;;;;;;;22.63;26.87;100288.06;5071509;28;20052;-64